<gpx version="1.0" creator="GPSBabel - http://www.gpsbabel.org">
<time>2013-07-04T18:40:14Z</time>
<bounds minlat="44.663756760" minlon="6.618561800" maxlat="44.676268430" maxlon="6.644445110"></bounds>
<trk>
<trkseg>
<trkpt lat="44.671273490" lon="6.618958430">
  <ele>888.721435</ele>
  <time>2013-07-03T12:29:23Z</time>
</trkpt>
<trkpt lat="44.671364850" lon="6.618899080">
  <ele>885.000000</ele>
  <time>2013-07-03T12:29:37Z</time>
</trkpt>
<trkpt lat="44.671531820" lon="6.619176690">
  <ele>888.869628</ele>
  <time>2013-07-03T12:31:10Z</time>
</trkpt>
<trkpt lat="44.671626700" lon="6.619496710">
  <ele>889.679016</ele>
  <time>2013-07-03T12:31:43Z</time>
</trkpt>
<trkpt lat="44.671601720" lon="6.619858480">
  <ele>892.871582</ele>
  <time>2013-07-03T12:33:51Z</time>
</trkpt>
<trkpt lat="44.671820160" lon="6.620036680">
  <ele>895.226806</ele>
  <time>2013-07-03T12:34:13Z</time>
</trkpt>
<trkpt lat="44.672051660" lon="6.620170120">
  <ele>896.781860</ele>
  <time>2013-07-03T12:34:46Z</time>
</trkpt>
<trkpt lat="44.672280150" lon="6.620325010">
  <ele>899.208618</ele>
  <time>2013-07-03T12:35:12Z</time>
</trkpt>
<trkpt lat="44.672510150" lon="6.620453420">
  <ele>901.126586</ele>
  <time>2013-07-03T12:35:35Z</time>
</trkpt>
<trkpt lat="44.672730090" lon="6.620633470">
  <ele>903.771484</ele>
  <time>2013-07-03T12:35:57Z</time>
</trkpt>
<trkpt lat="44.672956740" lon="6.620806800">
  <ele>905.664428</ele>
  <time>2013-07-03T12:36:19Z</time>
</trkpt>
<trkpt lat="44.673043410" lon="6.621136720">
  <ele>907.583496</ele>
  <time>2013-07-03T12:36:43Z</time>
</trkpt>
<trkpt lat="44.673180030" lon="6.621416670">
  <ele>908.493774</ele>
  <time>2013-07-03T12:37:04Z</time>
</trkpt>
<trkpt lat="44.673361750" lon="6.621643490">
  <ele>912.196411</ele>
  <time>2013-07-03T12:37:30Z</time>
</trkpt>
<trkpt lat="44.673600140" lon="6.621788490">
  <ele>913.812744</ele>
  <time>2013-07-03T12:38:16Z</time>
</trkpt>
<trkpt lat="44.673845060" lon="6.621913380">
  <ele>915.151550</ele>
  <time>2013-07-03T12:38:35Z</time>
</trkpt>
<trkpt lat="44.674023420" lon="6.622188480">
  <ele>917.189819</ele>
  <time>2013-07-03T12:38:59Z</time>
</trkpt>
<trkpt lat="44.674101710" lon="6.622486710">
  <ele>920.312377</ele>
  <time>2013-07-03T12:39:34Z</time>
</trkpt>
<trkpt lat="44.673865000" lon="6.622428370">
  <ele>921.166076</ele>
  <time>2013-07-03T12:39:52Z</time>
</trkpt>
<trkpt lat="44.673831810" lon="6.622591810">
  <ele>923.806762</ele>
  <time>2013-07-03T12:40:42Z</time>
</trkpt>
<trkpt lat="44.674040020" lon="6.622761800">
  <ele>926.327514</ele>
  <time>2013-07-03T12:41:01Z</time>
</trkpt>
<trkpt lat="44.674251750" lon="6.622936810">
  <ele>928.993103</ele>
  <time>2013-07-03T12:41:21Z</time>
</trkpt>
<trkpt lat="44.674455090" lon="6.623143340">
  <ele>931.374145</ele>
  <time>2013-07-03T12:41:41Z</time>
</trkpt>
<trkpt lat="44.674648380" lon="6.623373340">
  <ele>934.235717</ele>
  <time>2013-07-03T12:42:01Z</time>
</trkpt>
<trkpt lat="44.674853400" lon="6.623596800">
  <ele>936.673034</ele>
  <time>2013-07-03T12:42:23Z</time>
</trkpt>
<trkpt lat="44.675078370" lon="6.623761760">
  <ele>939.270690</ele>
  <time>2013-07-03T12:42:44Z</time>
</trkpt>
<trkpt lat="44.675310040" lon="6.623906770">
  <ele>940.776062</ele>
  <time>2013-07-03T12:43:05Z</time>
</trkpt>
<trkpt lat="44.675521770" lon="6.624116820">
  <ele>942.489868</ele>
  <time>2013-07-03T12:43:25Z</time>
</trkpt>
<trkpt lat="44.675755120" lon="6.624240030">
  <ele>945.795654</ele>
  <time>2013-07-03T12:44:51Z</time>
</trkpt>
<trkpt lat="44.675971710" lon="6.624403480">
  <ele>948.220581</ele>
  <time>2013-07-03T12:46:31Z</time>
</trkpt>
<trkpt lat="44.676136670" lon="6.624651750">
  <ele>949.808959</ele>
  <time>2013-07-03T12:46:50Z</time>
</trkpt>
<trkpt lat="44.676201710" lon="6.625003460">
  <ele>949.608276</ele>
  <time>2013-07-03T12:47:12Z</time>
</trkpt>
<trkpt lat="44.676230040" lon="6.625316770">
  <ele>951.131896</ele>
  <time>2013-07-03T12:47:50Z</time>
</trkpt>
<trkpt lat="44.675978420" lon="6.625261790">
  <ele>954.176757</ele>
  <time>2013-07-03T12:48:12Z</time>
</trkpt>
<trkpt lat="44.675735010" lon="6.625193390">
  <ele>955.800781</ele>
  <time>2013-07-03T12:48:33Z</time>
</trkpt>
<trkpt lat="44.675493440" lon="6.625208480">
  <ele>956.860229</ele>
  <time>2013-07-03T12:48:56Z</time>
</trkpt>
<trkpt lat="44.675603410" lon="6.625516760">
  <ele>958.502075</ele>
  <time>2013-07-03T12:52:33Z</time>
</trkpt>
<trkpt lat="44.675605090" lon="6.625638470">
  <ele>952.824096</ele>
  <time>2013-07-03T12:53:07Z</time>
</trkpt>
<trkpt lat="44.675533340" lon="6.625306710">
  <ele>957.792236</ele>
  <time>2013-07-03T12:53:35Z</time>
</trkpt>
<trkpt lat="44.675276680" lon="6.625308390">
  <ele>958.082946</ele>
  <time>2013-07-03T12:53:59Z</time>
</trkpt>
<trkpt lat="44.675046680" lon="6.625238480">
  <ele>958.235595</ele>
  <time>2013-07-03T12:54:21Z</time>
</trkpt>
<trkpt lat="44.674850050" lon="6.625015020">
  <ele>964.504516</ele>
  <time>2013-07-03T12:55:46Z</time>
</trkpt>
<trkpt lat="44.674711740" lon="6.624990040">
  <ele>975.847778</ele>
  <time>2013-07-03T12:56:50Z</time>
</trkpt>
<trkpt lat="44.674688440" lon="6.625303360">
  <ele>983.820800</ele>
  <time>2013-07-03T13:00:26Z</time>
</trkpt>
<trkpt lat="44.674466820" lon="6.625141760">
  <ele>990.366882</ele>
  <time>2013-07-03T13:02:22Z</time>
</trkpt>
<trkpt lat="44.674290130" lon="6.624898350">
  <ele>993.677001</ele>
  <time>2013-07-03T13:03:22Z</time>
</trkpt>
<trkpt lat="44.674071700" lon="6.624833470">
  <ele>993.715332</ele>
  <time>2013-07-03T13:04:15Z</time>
</trkpt>
<trkpt lat="44.673821750" lon="6.624900020">
  <ele>993.861206</ele>
  <time>2013-07-03T13:04:34Z</time>
</trkpt>
<trkpt lat="44.673636680" lon="6.625116780">
  <ele>996.079467</ele>
  <time>2013-07-03T13:04:54Z</time>
</trkpt>
<trkpt lat="44.673506760" lon="6.625436800">
  <ele>998.931884</ele>
  <time>2013-07-03T13:05:17Z</time>
</trkpt>
<trkpt lat="44.673348340" lon="6.625600080">
  <ele>1003.338867</ele>
  <time>2013-07-03T13:05:58Z</time>
</trkpt>
<trkpt lat="44.673293360" lon="6.625260110">
  <ele>1005.739135</ele>
  <time>2013-07-03T13:06:22Z</time>
</trkpt>
<trkpt lat="44.673213390" lon="6.625586670">
  <ele>1008.981201</ele>
  <time>2013-07-03T13:07:20Z</time>
</trkpt>
<trkpt lat="44.673295030" lon="6.625925130">
  <ele>1009.775573</ele>
  <time>2013-07-03T13:07:46Z</time>
</trkpt>
<trkpt lat="44.673308450" lon="6.626275160">
  <ele>1013.948364</ele>
  <time>2013-07-03T13:08:18Z</time>
</trkpt>
<trkpt lat="44.673160090" lon="6.626276670">
  <ele>1018.336975</ele>
  <time>2013-07-03T13:09:08Z</time>
</trkpt>
<trkpt lat="44.673058330" lon="6.626610100">
  <ele>1022.305725</ele>
  <time>2013-07-03T13:09:37Z</time>
</trkpt>
<trkpt lat="44.672916680" lon="6.626895080">
  <ele>1024.272216</ele>
  <time>2013-07-03T13:10:03Z</time>
</trkpt>
<trkpt lat="44.672741830" lon="6.627146710">
  <ele>1027.394775</ele>
  <time>2013-07-03T13:10:57Z</time>
</trkpt>
<trkpt lat="44.672535130" lon="6.627200020">
  <ele>1030.469970</ele>
  <time>2013-07-03T13:11:20Z</time>
</trkpt>
<trkpt lat="44.672363470" lon="6.627188450">
  <ele>1034.009399</ele>
  <time>2013-07-03T13:11:43Z</time>
</trkpt>
<trkpt lat="44.672265070" lon="6.626876810">
  <ele>1036.881225</ele>
  <time>2013-07-03T13:12:17Z</time>
</trkpt>
<trkpt lat="44.672218460" lon="6.626976720">
  <ele>1039.023315</ele>
  <time>2013-07-03T13:12:55Z</time>
</trkpt>
<trkpt lat="44.672218460" lon="6.627088370">
  <ele>1038.531005</ele>
  <time>2013-07-03T13:13:02Z</time>
</trkpt>
<trkpt lat="44.672270100" lon="6.627440080">
  <ele>1037.753051</ele>
  <time>2013-07-03T13:13:27Z</time>
</trkpt>
<trkpt lat="44.672333460" lon="6.627791780">
  <ele>1036.768066</ele>
  <time>2013-07-03T13:13:52Z</time>
</trkpt>
<trkpt lat="44.672403370" lon="6.628113480">
  <ele>1035.958740</ele>
  <time>2013-07-03T13:14:13Z</time>
</trkpt>
<trkpt lat="44.672478470" lon="6.628436680">
  <ele>1035.189941</ele>
  <time>2013-07-03T13:14:55Z</time>
</trkpt>
<trkpt lat="44.672533450" lon="6.628790060">
  <ele>1033.949340</ele>
  <time>2013-07-03T13:15:14Z</time>
</trkpt>
<trkpt lat="44.672593470" lon="6.629130030">
  <ele>1033.290527</ele>
  <time>2013-07-03T13:15:50Z</time>
</trkpt>
<trkpt lat="44.672670080" lon="6.629456760">
  <ele>1032.342041</ele>
  <time>2013-07-03T13:16:11Z</time>
</trkpt>
<trkpt lat="44.672756750" lon="6.629773430">
  <ele>1031.434204</ele>
  <time>2013-07-03T13:16:34Z</time>
</trkpt>
<trkpt lat="44.672896730" lon="6.630058410">
  <ele>1029.572265</ele>
  <time>2013-07-03T13:16:56Z</time>
</trkpt>
<trkpt lat="44.673076770" lon="6.630296800">
  <ele>1029.306762</ele>
  <time>2013-07-03T13:19:42Z</time>
</trkpt>
<trkpt lat="44.673180030" lon="6.630621680">
  <ele>1027.506225</ele>
  <time>2013-07-03T13:20:15Z</time>
</trkpt>
<trkpt lat="44.673273410" lon="6.630940020">
  <ele>1026.523437</ele>
  <time>2013-07-03T13:20:46Z</time>
</trkpt>
<trkpt lat="44.673415060" lon="6.631223330">
  <ele>1026.107421</ele>
  <time>2013-07-03T13:21:41Z</time>
</trkpt>
<trkpt lat="44.673548340" lon="6.631521730">
  <ele>1025.267578</ele>
  <time>2013-07-03T13:22:02Z</time>
</trkpt>
<trkpt lat="44.673616730" lon="6.631856670">
  <ele>1023.943603</ele>
  <time>2013-07-03T13:22:23Z</time>
</trkpt>
<trkpt lat="44.673723350" lon="6.632185070">
  <ele>1022.691528</ele>
  <time>2013-07-03T13:23:04Z</time>
</trkpt>
<trkpt lat="44.673953350" lon="6.632260000">
  <ele>1021.142028</ele>
  <time>2013-07-03T13:24:53Z</time>
</trkpt>
<trkpt lat="44.674185030" lon="6.632400150">
  <ele>1018.816528</ele>
  <time>2013-07-03T13:25:17Z</time>
</trkpt>
<trkpt lat="44.674426760" lon="6.632436700">
  <ele>1018.245849</ele>
  <time>2013-07-03T13:25:40Z</time>
</trkpt>
<trkpt lat="44.674655080" lon="6.632553370">
  <ele>1017.731445</ele>
  <time>2013-07-03T13:26:04Z</time>
</trkpt>
<trkpt lat="44.674880050" lon="6.632721680">
  <ele>1017.698913</ele>
  <time>2013-07-03T13:26:28Z</time>
</trkpt>
<trkpt lat="44.675070150" lon="6.632960060">
  <ele>1018.257385</ele>
  <time>2013-07-03T13:26:49Z</time>
</trkpt>
<trkpt lat="44.675256740" lon="6.633200120">
  <ele>1018.312316</ele>
  <time>2013-07-03T13:27:11Z</time>
</trkpt>
<trkpt lat="44.675458400" lon="6.633396760">
  <ele>1018.344604</ele>
  <time>2013-07-03T13:27:34Z</time>
</trkpt>
<trkpt lat="44.675661750" lon="6.633605130">
  <ele>1019.007385</ele>
  <time>2013-07-03T13:27:56Z</time>
</trkpt>
<trkpt lat="44.675840120" lon="6.633835130">
  <ele>1019.379516</ele>
  <time>2013-07-03T13:28:16Z</time>
</trkpt>
<trkpt lat="44.675940030" lon="6.634085080">
  <ele>1020.568786</ele>
  <time>2013-07-03T13:28:58Z</time>
</trkpt>
<trkpt lat="44.675985120" lon="6.634410130">
  <ele>1019.539672</ele>
  <time>2013-07-03T13:29:17Z</time>
</trkpt>
<trkpt lat="44.676006750" lon="6.634760160">
  <ele>1020.304138</ele>
  <time>2013-07-03T13:29:55Z</time>
</trkpt>
<trkpt lat="44.675940030" lon="6.635091750">
  <ele>1019.981933</ele>
  <time>2013-07-03T13:30:26Z</time>
</trkpt>
<trkpt lat="44.675861740" lon="6.635405060">
  <ele>1021.879394</ele>
  <time>2013-07-03T13:30:58Z</time>
</trkpt>
<trkpt lat="44.675770040" lon="6.635725080">
  <ele>1020.867736</ele>
  <time>2013-07-03T13:31:24Z</time>
</trkpt>
<trkpt lat="44.675683370" lon="6.636046780">
  <ele>1016.943481</ele>
  <time>2013-07-03T13:32:06Z</time>
</trkpt>
<trkpt lat="44.675721760" lon="6.636398490">
  <ele>1010.012268</ele>
  <time>2013-07-03T13:33:14Z</time>
</trkpt>
<trkpt lat="44.675648340" lon="6.636738460">
  <ele>1006.105895</ele>
  <time>2013-07-03T13:34:06Z</time>
</trkpt>
<trkpt lat="44.675501820" lon="6.637006680">
  <ele>1002.183044</ele>
  <time>2013-07-03T13:34:25Z</time>
</trkpt>
<trkpt lat="44.675335020" lon="6.637288480">
  <ele>998.414916</ele>
  <time>2013-07-03T13:34:47Z</time>
</trkpt>
<trkpt lat="44.675215160" lon="6.637608330">
  <ele>994.146118</ele>
  <time>2013-07-03T13:35:27Z</time>
</trkpt>
<trkpt lat="44.675106700" lon="6.637911750">
  <ele>990.540344</ele>
  <time>2013-07-03T13:35:59Z</time>
</trkpt>
<trkpt lat="44.675051710" lon="6.638271670">
  <ele>986.093872</ele>
  <time>2013-07-03T13:36:31Z</time>
</trkpt>
<trkpt lat="44.675055070" lon="6.638623380">
  <ele>982.254333</ele>
  <time>2013-07-03T13:37:57Z</time>
</trkpt>
<trkpt lat="44.674985160" lon="6.638971730">
  <ele>977.737182</ele>
  <time>2013-07-03T13:38:55Z</time>
</trkpt>
<trkpt lat="44.674851720" lon="6.639266770">
  <ele>974.460632</ele>
  <time>2013-07-03T13:39:21Z</time>
</trkpt>
<trkpt lat="44.674681740" lon="6.639526780">
  <ele>969.653259</ele>
  <time>2013-07-03T13:39:51Z</time>
</trkpt>
<trkpt lat="44.674681740" lon="6.639883350">
  <ele>965.577209</ele>
  <time>2013-07-03T13:40:17Z</time>
</trkpt>
<trkpt lat="44.674585010" lon="6.640191800">
  <ele>961.953430</ele>
  <time>2013-07-03T13:40:46Z</time>
</trkpt>
<trkpt lat="44.674485100" lon="6.640508470">
  <ele>959.741455</ele>
  <time>2013-07-03T13:41:18Z</time>
</trkpt>
<trkpt lat="44.674471690" lon="6.640870060">
  <ele>958.576293</ele>
  <time>2013-07-03T13:41:41Z</time>
</trkpt>
<trkpt lat="44.674425080" lon="6.641221770">
  <ele>958.735168</ele>
  <time>2013-07-03T13:42:06Z</time>
</trkpt>
<trkpt lat="44.674283430" lon="6.641523350">
  <ele>958.512817</ele>
  <time>2013-07-03T13:42:31Z</time>
</trkpt>
<trkpt lat="44.674118470" lon="6.641785030">
  <ele>956.910339</ele>
  <time>2013-07-03T13:42:55Z</time>
</trkpt>
<trkpt lat="44.674033480" lon="6.642098350">
  <ele>954.409667</ele>
  <time>2013-07-03T13:43:44Z</time>
</trkpt>
<trkpt lat="44.673986710" lon="6.642465140">
  <ele>949.677246</ele>
  <time>2013-07-03T13:44:18Z</time>
</trkpt>
<trkpt lat="44.673948490" lon="6.642825060">
  <ele>944.507446</ele>
  <time>2013-07-03T13:44:50Z</time>
</trkpt>
<trkpt lat="44.673961730" lon="6.643175090">
  <ele>940.813049</ele>
  <time>2013-07-03T13:45:16Z</time>
</trkpt>
<trkpt lat="44.673753360" lon="6.643373400">
  <ele>939.654907</ele>
  <time>2013-07-03T13:45:36Z</time>
</trkpt>
<trkpt lat="44.673540120" lon="6.643571720">
  <ele>939.624328</ele>
  <time>2013-07-03T13:48:42Z</time>
</trkpt>
<trkpt lat="44.673376670" lon="6.643841780">
  <ele>939.818176</ele>
  <time>2013-07-03T13:49:09Z</time>
</trkpt>
<trkpt lat="44.673223450" lon="6.644106820">
  <ele>938.998352</ele>
  <time>2013-07-03T13:49:27Z</time>
</trkpt>
<trkpt lat="44.673110130" lon="6.644406720">
  <ele>937.219116</ele>
  <time>2013-07-03T13:49:48Z</time>
</trkpt>
<trkpt lat="44.672871750" lon="6.644358440">
  <ele>934.742858</ele>
  <time>2013-07-03T13:50:13Z</time>
</trkpt>
<trkpt lat="44.672635040" lon="6.644213440">
  <ele>932.158447</ele>
  <time>2013-07-03T13:50:48Z</time>
</trkpt>
<trkpt lat="44.672685000" lon="6.643860060">
  <ele>931.824829</ele>
  <time>2013-07-03T13:53:11Z</time>
</trkpt>
<trkpt lat="44.672723390" lon="6.643515060">
  <ele>930.947753</ele>
  <time>2013-07-03T13:53:31Z</time>
</trkpt>
<trkpt lat="44.672753400" lon="6.643186820">
  <ele>930.678527</ele>
  <time>2013-07-03T13:55:03Z</time>
</trkpt>
<trkpt lat="44.672803350" lon="6.642851710">
  <ele>929.052795</ele>
  <time>2013-07-03T13:55:23Z</time>
</trkpt>
<trkpt lat="44.672823470" lon="6.642491790">
  <ele>927.747558</ele>
  <time>2013-07-03T13:55:46Z</time>
</trkpt>
<trkpt lat="44.672856830" lon="6.642123490">
  <ele>925.726562</ele>
  <time>2013-07-03T13:56:10Z</time>
</trkpt>
<trkpt lat="44.672893370" lon="6.641765080">
  <ele>923.933227</ele>
  <time>2013-07-03T13:56:33Z</time>
</trkpt>
<trkpt lat="44.672966800" lon="6.641425110">
  <ele>922.791503</ele>
  <time>2013-07-03T13:56:54Z</time>
</trkpt>
<trkpt lat="44.672995130" lon="6.641081790">
  <ele>920.751831</ele>
  <time>2013-07-03T13:57:17Z</time>
</trkpt>
<trkpt lat="44.672961770" lon="6.640720030">
  <ele>919.504028</ele>
  <time>2013-07-03T13:57:41Z</time>
</trkpt>
<trkpt lat="44.672993450" lon="6.640368490">
  <ele>918.816589</ele>
  <time>2013-07-03T13:58:03Z</time>
</trkpt>
<trkpt lat="44.673016760" lon="6.640025000">
  <ele>918.500366</ele>
  <time>2013-07-03T13:58:24Z</time>
</trkpt>
<trkpt lat="44.673093370" lon="6.639676820">
  <ele>918.263671</ele>
  <time>2013-07-03T13:58:48Z</time>
</trkpt>
<trkpt lat="44.673198480" lon="6.639373390">
  <ele>918.136474</ele>
  <time>2013-07-03T13:59:07Z</time>
</trkpt>
<trkpt lat="44.673293360" lon="6.639065100">
  <ele>917.652343</ele>
  <time>2013-07-03T13:59:26Z</time>
</trkpt>
<trkpt lat="44.673396790" lon="6.638731670">
  <ele>917.541015</ele>
  <time>2013-07-03T13:59:47Z</time>
</trkpt>
<trkpt lat="44.673446750" lon="6.638386670">
  <ele>917.502075</ele>
  <time>2013-07-03T14:00:09Z</time>
</trkpt>
<trkpt lat="44.673531740" lon="6.638058440">
  <ele>916.905029</ele>
  <time>2013-07-03T14:00:29Z</time>
</trkpt>
<trkpt lat="44.673576670" lon="6.637720140">
  <ele>917.606140</ele>
  <time>2013-07-03T14:01:21Z</time>
</trkpt>
<trkpt lat="44.673613380" lon="6.637378330">
  <ele>919.847473</ele>
  <time>2013-07-03T14:01:40Z</time>
</trkpt>
<trkpt lat="44.673606670" lon="6.637025120">
  <ele>921.869995</ele>
  <time>2013-07-03T14:02:01Z</time>
</trkpt>
<trkpt lat="44.673536770" lon="6.636681790">
  <ele>922.054870</ele>
  <time>2013-07-03T14:02:25Z</time>
</trkpt>
<trkpt lat="44.673388410" lon="6.636385070">
  <ele>922.153564</ele>
  <time>2013-07-03T14:02:56Z</time>
</trkpt>
<trkpt lat="44.673295030" lon="6.636043430">
  <ele>924.576721</ele>
  <time>2013-07-03T14:03:27Z</time>
</trkpt>
<trkpt lat="44.673291680" lon="6.635711670">
  <ele>925.571960</ele>
  <time>2013-07-03T14:04:08Z</time>
</trkpt>
<trkpt lat="44.673253460" lon="6.635381760">
  <ele>926.098205</ele>
  <time>2013-07-03T14:04:29Z</time>
</trkpt>
<trkpt lat="44.673183390" lon="6.635031730">
  <ele>926.738159</ele>
  <time>2013-07-03T14:05:44Z</time>
</trkpt>
<trkpt lat="44.673076770" lon="6.634715060">
  <ele>927.598327</ele>
  <time>2013-07-03T14:06:07Z</time>
</trkpt>
<trkpt lat="44.672953390" lon="6.634400070">
  <ele>930.186401</ele>
  <time>2013-07-03T14:06:32Z</time>
</trkpt>
<trkpt lat="44.672793460" lon="6.634118440">
  <ele>931.065856</ele>
  <time>2013-07-03T14:07:12Z</time>
</trkpt>
<trkpt lat="44.672660020" lon="6.633836810">
  <ele>932.001159</ele>
  <time>2013-07-03T14:07:34Z</time>
</trkpt>
<trkpt lat="44.672475120" lon="6.633601780">
  <ele>931.620666</ele>
  <time>2013-07-03T14:07:55Z</time>
</trkpt>
<trkpt lat="44.672288370" lon="6.633370100">
  <ele>930.488647</ele>
  <time>2013-07-03T14:08:18Z</time>
</trkpt>
<trkpt lat="44.672096760" lon="6.633141780">
  <ele>928.517822</ele>
  <time>2013-07-03T14:08:41Z</time>
</trkpt>
<trkpt lat="44.671901790" lon="6.632916810">
  <ele>926.879882</ele>
  <time>2013-07-03T14:09:08Z</time>
</trkpt>
<trkpt lat="44.671741700" lon="6.632655130">
  <ele>924.408203</ele>
  <time>2013-07-03T14:09:56Z</time>
</trkpt>
<trkpt lat="44.671528460" lon="6.632500060">
  <ele>922.123535</ele>
  <time>2013-07-03T14:10:24Z</time>
</trkpt>
<trkpt lat="44.671276670" lon="6.632376680">
  <ele>920.762451</ele>
  <time>2013-07-03T14:10:47Z</time>
</trkpt>
<trkpt lat="44.671033430" lon="6.632275090">
  <ele>920.008483</ele>
  <time>2013-07-03T14:11:08Z</time>
</trkpt>
<trkpt lat="44.670835110" lon="6.632075100">
  <ele>919.300903</ele>
  <time>2013-07-03T14:11:27Z</time>
</trkpt>
<trkpt lat="44.670650040" lon="6.631830010">
  <ele>922.466918</ele>
  <time>2013-07-03T14:11:50Z</time>
</trkpt>
<trkpt lat="44.670438480" lon="6.631611750">
  <ele>922.928771</ele>
  <time>2013-07-03T14:12:12Z</time>
</trkpt>
<trkpt lat="44.670253410" lon="6.631400020">
  <ele>923.187072</ele>
  <time>2013-07-03T14:12:40Z</time>
</trkpt>
<trkpt lat="44.670041680" lon="6.631203380">
  <ele>920.961853</ele>
  <time>2013-07-03T14:13:00Z</time>
</trkpt>
<trkpt lat="44.669820070" lon="6.631035070">
  <ele>921.074340</ele>
  <time>2013-07-03T14:13:21Z</time>
</trkpt>
<trkpt lat="44.669628450" lon="6.630786800">
  <ele>920.180114</ele>
  <time>2013-07-03T14:13:42Z</time>
</trkpt>
<trkpt lat="44.669435000" lon="6.630571720">
  <ele>919.334716</ele>
  <time>2013-07-03T14:14:02Z</time>
</trkpt>
<trkpt lat="44.669230150" lon="6.630353460">
  <ele>920.180297</ele>
  <time>2013-07-03T14:14:22Z</time>
</trkpt>
<trkpt lat="44.669031660" lon="6.630150110">
  <ele>920.829284</ele>
  <time>2013-07-03T14:14:42Z</time>
</trkpt>
<trkpt lat="44.668820100" lon="6.629961690">
  <ele>922.642944</ele>
  <time>2013-07-03T14:15:05Z</time>
</trkpt>
<trkpt lat="44.668638380" lon="6.629745100">
  <ele>923.604980</ele>
  <time>2013-07-03T14:15:24Z</time>
</trkpt>
<trkpt lat="44.668425150" lon="6.629546780">
  <ele>923.155761</ele>
  <time>2013-07-03T14:15:45Z</time>
</trkpt>
<trkpt lat="44.668220130" lon="6.629356680">
  <ele>920.781921</ele>
  <time>2013-07-03T14:16:05Z</time>
</trkpt>
<trkpt lat="44.668061710" lon="6.629095000">
  <ele>920.448486</ele>
  <time>2013-07-03T14:16:48Z</time>
</trkpt>
<trkpt lat="44.667880160" lon="6.628878410">
  <ele>919.147644</ele>
  <time>2013-07-03T14:17:02Z</time>
</trkpt>
<trkpt lat="44.667695090" lon="6.628651760">
  <ele>917.664001</ele>
  <time>2013-07-03T14:17:21Z</time>
</trkpt>
<trkpt lat="44.667528450" lon="6.628378350">
  <ele>917.428161</ele>
  <time>2013-07-03T14:17:49Z</time>
</trkpt>
<trkpt lat="44.667335000" lon="6.628165110">
  <ele>917.358947</ele>
  <time>2013-07-03T14:18:16Z</time>
</trkpt>
<trkpt lat="44.667148420" lon="6.627918350">
  <ele>915.479980</ele>
  <time>2013-07-03T14:18:41Z</time>
</trkpt>
<trkpt lat="44.666928480" lon="6.627755070">
  <ele>914.330078</ele>
  <time>2013-07-03T14:19:13Z</time>
</trkpt>
<trkpt lat="44.666713400" lon="6.627601680">
  <ele>911.603942</ele>
  <time>2013-07-03T14:19:31Z</time>
</trkpt>
<trkpt lat="44.666505020" lon="6.627428340">
  <ele>909.305725</ele>
  <time>2013-07-03T14:19:51Z</time>
</trkpt>
<trkpt lat="44.666288430" lon="6.627245110">
  <ele>910.189331</ele>
  <time>2013-07-03T14:20:11Z</time>
</trkpt>
<trkpt lat="44.666095150" lon="6.627043440">
  <ele>909.991882</ele>
  <time>2013-07-03T14:20:30Z</time>
</trkpt>
<trkpt lat="44.665878390" lon="6.626861720">
  <ele>910.010192</ele>
  <time>2013-07-03T14:20:49Z</time>
</trkpt>
<trkpt lat="44.665676720" lon="6.626671790">
  <ele>910.254211</ele>
  <time>2013-07-03T14:21:05Z</time>
</trkpt>
<trkpt lat="44.665491820" lon="6.626441790">
  <ele>909.765625</ele>
  <time>2013-07-03T14:21:23Z</time>
</trkpt>
<trkpt lat="44.665315130" lon="6.626226710">
  <ele>909.352966</ele>
  <time>2013-07-03T14:21:41Z</time>
</trkpt>
<trkpt lat="44.665146820" lon="6.625990010">
  <ele>909.731445</ele>
  <time>2013-07-03T14:22:00Z</time>
</trkpt>
<trkpt lat="44.664910110" lon="6.625871820">
  <ele>910.285278</ele>
  <time>2013-07-03T14:22:20Z</time>
</trkpt>
<trkpt lat="44.664713470" lon="6.625648360">
  <ele>910.530151</ele>
  <time>2013-07-03T14:22:39Z</time>
</trkpt>
<trkpt lat="44.664518340" lon="6.625446690">
  <ele>909.940673</ele>
  <time>2013-07-03T14:23:03Z</time>
</trkpt>
<trkpt lat="44.664323380" lon="6.625235130">
  <ele>910.562744</ele>
  <time>2013-07-03T14:23:24Z</time>
</trkpt>
<trkpt lat="44.664171670" lon="6.624963390">
  <ele>911.489868</ele>
  <time>2013-07-03T14:23:46Z</time>
</trkpt>
<trkpt lat="44.664088350" lon="6.625311740">
  <ele>911.631103</ele>
  <time>2013-07-03T14:24:24Z</time>
</trkpt>
<trkpt lat="44.663956760" lon="6.625613490">
  <ele>911.041015</ele>
  <time>2013-07-03T14:24:48Z</time>
</trkpt>
<trkpt lat="44.663901770" lon="6.625715080">
  <ele>909.508300</ele>
  <time>2013-07-03T14:25:52Z</time>
</trkpt>
<trkpt lat="44.664023480" lon="6.625393380">
  <ele>911.516723</ele>
  <time>2013-07-03T14:26:16Z</time>
</trkpt>
<trkpt lat="44.664153400" lon="6.625110070">
  <ele>911.607421</ele>
  <time>2013-07-03T14:26:36Z</time>
</trkpt>
<trkpt lat="44.664083490" lon="6.624786700">
  <ele>912.274475</ele>
  <time>2013-07-03T14:27:02Z</time>
</trkpt>
<trkpt lat="44.663875120" lon="6.624568440">
  <ele>911.607055</ele>
  <time>2013-07-03T14:27:23Z</time>
</trkpt>
<trkpt lat="44.663761790" lon="6.624248410">
  <ele>910.897155</ele>
  <time>2013-07-03T14:27:44Z</time>
</trkpt>
<trkpt lat="44.663768330" lon="6.623916830">
  <ele>910.388183</ele>
  <time>2013-07-03T14:28:01Z</time>
</trkpt>
<trkpt lat="44.663853490" lon="6.623586750">
  <ele>908.482788</ele>
  <time>2013-07-03T14:28:20Z</time>
</trkpt>
<trkpt lat="44.663968490" lon="6.623260020">
  <ele>907.150512</ele>
  <time>2013-07-03T14:28:41Z</time>
</trkpt>
<trkpt lat="44.664096730" lon="6.622943350">
  <ele>905.719360</ele>
  <time>2013-07-03T14:29:01Z</time>
</trkpt>
<trkpt lat="44.664198490" lon="6.622628360">
  <ele>904.126220</ele>
  <time>2013-07-03T14:29:21Z</time>
</trkpt>
<trkpt lat="44.664293370" lon="6.622300120">
  <ele>903.960327</ele>
  <time>2013-07-03T14:29:40Z</time>
</trkpt>
<trkpt lat="44.664406700" lon="6.621983460">
  <ele>902.811523</ele>
  <time>2013-07-03T14:30:00Z</time>
</trkpt>
<trkpt lat="44.664530080" lon="6.621673490">
  <ele>902.015563</ele>
  <time>2013-07-03T14:30:19Z</time>
</trkpt>
<trkpt lat="44.664641730" lon="6.621375100">
  <ele>902.091186</ele>
  <time>2013-07-03T14:30:37Z</time>
</trkpt>
<trkpt lat="44.664780030" lon="6.621100000">
  <ele>902.259155</ele>
  <time>2013-07-03T14:30:57Z</time>
</trkpt>
<trkpt lat="44.664956720" lon="6.620866820">
  <ele>901.910278</ele>
  <time>2013-07-03T14:31:16Z</time>
</trkpt>
<trkpt lat="44.665151680" lon="6.620658440">
  <ele>900.720825</ele>
  <time>2013-07-03T14:31:36Z</time>
</trkpt>
<trkpt lat="44.665358380" lon="6.620426770">
  <ele>899.235778</ele>
  <time>2013-07-03T14:31:56Z</time>
</trkpt>
<trkpt lat="44.665570110" lon="6.620221750">
  <ele>899.168762</ele>
  <time>2013-07-03T14:32:16Z</time>
</trkpt>
<trkpt lat="44.665751820" lon="6.619991750">
  <ele>897.962768</ele>
  <time>2013-07-03T14:32:35Z</time>
</trkpt>
<trkpt lat="44.665956680" lon="6.619800140">
  <ele>897.842712</ele>
  <time>2013-07-03T14:32:53Z</time>
</trkpt>
<trkpt lat="44.666168410" lon="6.619625120">
  <ele>897.421997</ele>
  <time>2013-07-03T14:33:14Z</time>
</trkpt>
<trkpt lat="44.666380130" lon="6.619481790">
  <ele>897.319885</ele>
  <time>2013-07-03T14:33:32Z</time>
</trkpt>
<trkpt lat="44.666608460" lon="6.619338460">
  <ele>896.757507</ele>
  <time>2013-07-03T14:33:52Z</time>
</trkpt>
<trkpt lat="44.666835100" lon="6.619210050">
  <ele>896.636718</ele>
  <time>2013-07-03T14:34:15Z</time>
</trkpt>
<trkpt lat="44.667066780" lon="6.619130090">
  <ele>897.362304</ele>
  <time>2013-07-03T14:34:32Z</time>
</trkpt>
<trkpt lat="44.667310020" lon="6.619120030">
  <ele>897.360290</ele>
  <time>2013-07-03T14:34:49Z</time>
</trkpt>
<trkpt lat="44.667553430" lon="6.619100080">
  <ele>897.460571</ele>
  <time>2013-07-03T14:35:06Z</time>
</trkpt>
<trkpt lat="44.667783430" lon="6.619041740">
  <ele>896.885253</ele>
  <time>2013-07-03T14:35:24Z</time>
</trkpt>
<trkpt lat="44.668028350" lon="6.619003350">
  <ele>896.205932</ele>
  <time>2013-07-03T14:35:41Z</time>
</trkpt>
<trkpt lat="44.668280140" lon="6.618961780">
  <ele>896.550231</ele>
  <time>2013-07-03T14:36:01Z</time>
</trkpt>
<trkpt lat="44.668525060" lon="6.618878460">
  <ele>898.034240</ele>
  <time>2013-07-03T14:36:19Z</time>
</trkpt>
<trkpt lat="44.668768470" lon="6.618778380">
  <ele>897.449218</ele>
  <time>2013-07-03T14:36:41Z</time>
</trkpt>
<trkpt lat="44.668965110" lon="6.618561800">
  <ele>898.121643</ele>
  <time>2013-07-03T14:37:06Z</time>
</trkpt>
<trkpt lat="44.668905100" lon="6.618863380">
  <ele>898.128479</ele>
  <time>2013-07-03T14:37:39Z</time>
</trkpt>
<trkpt lat="44.669148340" lon="6.618796820">
  <ele>898.965087</ele>
  <time>2013-07-03T14:37:58Z</time>
</trkpt>
<trkpt lat="44.669401810" lon="6.618785090">
  <ele>899.580139</ele>
  <time>2013-07-03T14:38:24Z</time>
</trkpt>
<trkpt lat="44.669633480" lon="6.618745020">
  <ele>899.293823</ele>
  <time>2013-07-03T14:38:44Z</time>
</trkpt>
<trkpt lat="44.669886790" lon="6.618770000">
  <ele>899.512756</ele>
  <time>2013-07-03T14:39:03Z</time>
</trkpt>
<trkpt lat="44.670120140" lon="6.618945020">
  <ele>900.043823</ele>
  <time>2013-07-03T14:39:24Z</time>
</trkpt>
<trkpt lat="44.670361700" lon="6.619048450">
  <ele>900.642761</ele>
  <time>2013-07-03T14:39:44Z</time>
</trkpt>
<trkpt lat="44.670580140" lon="6.619115000">
  <ele>900.798339</ele>
  <time>2013-07-03T14:40:01Z</time>
</trkpt>
<trkpt lat="44.670806780" lon="6.619140150">
  <ele>900.463500</ele>
  <time>2013-07-03T14:40:29Z</time>
</trkpt>
<trkpt lat="44.671036780" lon="6.619266710">
  <ele>903.755737</ele>
  <time>2013-07-03T14:40:52Z</time>
</trkpt>
<trkpt lat="44.671235100" lon="6.619483470">
  <ele>904.381286</ele>
  <time>2013-07-03T14:41:16Z</time>
</trkpt>
<trkpt lat="44.671466770" lon="6.619606680">
  <ele>903.925292</ele>
  <time>2013-07-03T14:41:36Z</time>
</trkpt>
<trkpt lat="44.671608430" lon="6.619630150">
  <ele>901.826293</ele>
  <time>2013-07-03T14:42:18Z</time>
</trkpt>
<trkpt lat="44.671620000" lon="6.619296720">
  <ele>900.363159</ele>
  <time>2013-07-03T14:42:37Z</time>
</trkpt>
<trkpt lat="44.671500130" lon="6.618991790">
  <ele>899.493041</ele>
  <time>2013-07-03T14:42:57Z</time>
</trkpt>
<trkpt lat="44.671468450" lon="6.618766820">
  <ele>898.743713</ele>
  <time>2013-07-03T14:43:19Z</time>
</trkpt>
<trkpt lat="44.671571720" lon="6.618766820">
  <ele>899.343872</ele>
  <time>2013-07-03T14:44:35Z</time>
</trkpt>
<trkpt lat="44.671571720" lon="6.618766820">
  <ele>899.343872</ele>
  <time>2013-07-03T14:44:35Z</time>
</trkpt>
<trkpt lat="44.671571720" lon="6.618766820">
  <ele>899.300000</ele>
  <time>2013-07-03T14:44:35Z</time>
</trkpt>
<trkpt lat="44.671571720" lon="6.618766820">
  <ele>899.300000</ele>
  <time>2013-07-03T14:44:35Z</time>
</trkpt>
</trkseg>
</trk>
</gpx>